sensor_id;sensor_type;location;lat;lon;timestamp;P1;durP1;ratioP1;P2;durP2;ratioP2
45684;SDS011;46836;48.388;16.210;2023-05-02T00:01:57;8.43;;;6.68;;
45684;SDS011;46836;48.388;16.210;2023-05-02T00:04:25;7.90;;;6.43;;
45684;SDS011;46836;48.388;16.210;2023-05-02T00:06:52;6.80;;;5.85;;
45684;SDS011;46836;48.388;16.210;2023-05-02T00:09:19;8.32;;;6.22;;
45684;SDS011;46836;48.388;16.210;2023-05-02T00:11:47;9.02;;;7.15;;
45684;SDS011;46836;48.388;16.210;2023-05-02T00:14:14;7.45;;;6.68;;
45684;SDS011;46836;48.388;16.210;2023-05-02T00:16:41;9.82;;;7.20;;
45684;SDS011;46836;48.388;16.210;2023-05-02T00:19:08;8.43;;;7.32;;
45684;SDS011;46836;48.388;16.210;2023-05-02T00:21:35;8.25;;;7.40;;
45684;SDS011;46836;48.388;16.210;2023-05-02T00:24:02;8.32;;;7.50;;
45684;SDS011;46836;48.388;16.210;2023-05-02T00:26:29;8.63;;;7.70;;
45684;SDS011;46836;48.388;16.210;2023-05-02T00:28:57;12.32;;;8.52;;
45684;SDS011;46836;48.388;16.210;2023-05-02T00:31:24;10.13;;;8.35;;
45684;SDS011;46836;48.388;16.210;2023-05-02T00:33:51;10.55;;;7.82;;
45684;SDS011;46836;48.388;16.210;2023-05-02T00:36:18;9.48;;;8.15;;
45684;SDS011;46836;48.388;16.210;2023-05-02T00:38:45;15.93;;;9.32;;
45684;SDS011;46836;48.388;16.210;2023-05-02T00:41:12;14.43;;;8.90;;
45684;SDS011;46836;48.388;16.210;2023-05-02T00:43:42;12.60;;;9.68;;
45684;SDS011;46836;48.388;16.210;2023-05-02T00:46:09;10.52;;;9.40;;
45684;SDS011;46836;48.388;16.210;2023-05-02T00:48:38;10.38;;;8.45;;
45684;SDS011;46836;48.388;16.210;2023-05-02T00:51:05;10.25;;;9.10;;
45684;SDS011;46836;48.388;16.210;2023-05-02T00:53:34;9.68;;;7.65;;
45684;SDS011;46836;48.388;16.210;2023-05-02T00:56:01;11.18;;;8.90;;
45684;SDS011;46836;48.388;16.210;2023-05-02T00:58:28;12.57;;;8.85;;
45684;SDS011;46836;48.388;16.210;2023-05-02T01:14:57;15.40;;;9.10;;
45684;SDS011;46836;48.388;16.210;2023-05-02T01:17:28;12.68;;;9.70;;
45684;SDS011;46836;48.388;16.210;2023-05-02T01:20:10;9.80;;;8.45;;
45684;SDS011;46836;48.388;16.210;2023-05-02T01:22:42;10.20;;;8.98;;
45684;SDS011;46836;48.388;16.210;2023-05-02T01:30:19;10.68;;;8.90;;
45684;SDS011;46836;48.388;16.210;2023-05-02T01:32:47;10.27;;;8.63;;
45684;SDS011;46836;48.388;16.210;2023-05-02T01:35:17;8.40;;;7.40;;
45684;SDS011;46836;48.388;16.210;2023-05-02T01:37:47;10.93;;;8.30;;
45684;SDS011;46836;48.388;16.210;2023-05-02T01:40:16;9.25;;;8.13;;
45684;SDS011;46836;48.388;16.210;2023-05-02T01:42:46;10.20;;;8.05;;
45684;SDS011;46836;48.388;16.210;2023-05-02T01:45:15;12.30;;;8.38;;
45684;SDS011;46836;48.388;16.210;2023-05-02T01:47:44;9.50;;;7.78;;
45684;SDS011;46836;48.388;16.210;2023-05-02T01:50:15;9.57;;;7.38;;
45684;SDS011;46836;48.388;16.210;2023-05-02T01:52:45;8.52;;;6.55;;
45684;SDS011;46836;48.388;16.210;2023-05-02T01:55:15;12.52;;;8.45;;
45684;SDS011;46836;48.388;16.210;2023-05-02T01:57:43;7.18;;;6.40;;
45684;SDS011;46836;48.388;16.210;2023-05-02T02:00:12;10.05;;;7.63;;
45684;SDS011;46836;48.388;16.210;2023-05-02T02:02:42;8.80;;;7.18;;
45684;SDS011;46836;48.388;16.210;2023-05-02T02:05:12;7.80;;;6.75;;
45684;SDS011;46836;48.388;16.210;2023-05-02T02:07:42;9.38;;;7.45;;
45684;SDS011;46836;48.388;16.210;2023-05-02T02:10:09;7.15;;;6.45;;
45684;SDS011;46836;48.388;16.210;2023-05-02T02:15:08;8.00;;;6.50;;
45684;SDS011;46836;48.388;16.210;2023-05-02T02:17:42;8.07;;;6.68;;
45684;SDS011;46836;48.388;16.210;2023-05-02T02:20:14;7.90;;;6.38;;
45684;SDS011;46836;48.388;16.210;2023-05-02T02:22:43;7.18;;;6.03;;
45684;SDS011;46836;48.388;16.210;2023-05-02T02:25:14;7.65;;;6.85;;
45684;SDS011;46836;48.388;16.210;2023-05-02T02:27:42;8.90;;;6.20;;
45684;SDS011;46836;48.388;16.210;2023-05-02T02:30:10;10.48;;;7.10;;
45684;SDS011;46836;48.388;16.210;2023-05-02T02:32:37;9.15;;;6.47;;
45684;SDS011;46836;48.388;16.210;2023-05-02T02:35:04;9.73;;;7.40;;
45684;SDS011;46836;48.388;16.210;2023-05-02T02:37:45;9.30;;;6.45;;
45684;SDS011;46836;48.388;16.210;2023-05-02T02:51:49;11.80;;;7.28;;
45684;SDS011;46836;48.388;16.210;2023-05-02T02:57:30;8.73;;;6.60;;
45684;SDS011;46836;48.388;16.210;2023-05-02T03:00:08;7.95;;;6.93;;
45684;SDS011;46836;48.388;16.210;2023-05-02T03:02:40;8.70;;;7.25;;
45684;SDS011;46836;48.388;16.210;2023-05-02T03:05:08;7.72;;;6.90;;
45684;SDS011;46836;48.388;16.210;2023-05-02T03:07:37;7.95;;;7.25;;
45684;SDS011;46836;48.388;16.210;2023-05-02T03:10:04;8.52;;;7.35;;
45684;SDS011;46836;48.388;16.210;2023-05-02T03:12:32;9.70;;;7.25;;
45684;SDS011;46836;48.388;16.210;2023-05-02T03:15:47;9.25;;;7.72;;
45684;SDS011;46836;48.388;16.210;2023-05-02T03:17:49;8.38;;;7.00;;
45684;SDS011;46836;48.388;16.210;2023-05-02T03:20:16;10.55;;;7.65;;
45684;SDS011;46836;48.388;16.210;2023-05-02T03:22:43;9.27;;;7.72;;
45684;SDS011;46836;48.388;16.210;2023-05-02T03:25:11;9.20;;;7.43;;
45684;SDS011;46836;48.388;16.210;2023-05-02T03:27:38;11.00;;;8.02;;
45684;SDS011;46836;48.388;16.210;2023-05-02T03:30:05;8.35;;;7.13;;
45684;SDS011;46836;48.388;16.210;2023-05-02T03:32:33;9.38;;;7.60;;
45684;SDS011;46836;48.388;16.210;2023-05-02T03:35:00;9.30;;;7.90;;
45684;SDS011;46836;48.388;16.210;2023-05-02T03:37:27;12.13;;;8.00;;
45684;SDS011;46836;48.388;16.210;2023-05-02T03:39:54;10.43;;;8.32;;
45684;SDS011;46836;48.388;16.210;2023-05-02T03:42:21;9.32;;;7.40;;
45684;SDS011;46836;48.388;16.210;2023-05-02T03:44:50;10.30;;;8.10;;
45684;SDS011;46836;48.388;16.210;2023-05-02T03:47:19;12.52;;;8.98;;
45684;SDS011;46836;48.388;16.210;2023-05-02T03:49:46;9.15;;;7.80;;
45684;SDS011;46836;48.388;16.210;2023-05-02T03:52:13;9.25;;;7.55;;
45684;SDS011;46836;48.388;16.210;2023-05-02T03:54:40;9.38;;;8.00;;
45684;SDS011;46836;48.388;16.210;2023-05-02T03:57:09;10.02;;;7.90;;
45684;SDS011;46836;48.388;16.210;2023-05-02T03:59:37;8.60;;;7.60;;
45684;SDS011;46836;48.388;16.210;2023-05-02T04:02:07;10.48;;;8.52;;
45684;SDS011;46836;48.388;16.210;2023-05-02T04:04:34;10.98;;;8.40;;
45684;SDS011;46836;48.388;16.210;2023-05-02T04:07:02;10.35;;;8.63;;
45684;SDS011;46836;48.388;16.210;2023-05-02T04:09:30;11.10;;;8.60;;
45684;SDS011;46836;48.388;16.210;2023-05-02T04:11:57;11.75;;;8.88;;
45684;SDS011;46836;48.388;16.210;2023-05-02T04:14:24;12.75;;;9.38;;
45684;SDS011;46836;48.388;16.210;2023-05-02T04:16:51;12.65;;;9.40;;
45684;SDS011;46836;48.388;16.210;2023-05-02T04:19:18;12.02;;;9.20;;
45684;SDS011;46836;48.388;16.210;2023-05-02T04:21:45;11.88;;;9.23;;
45684;SDS011;46836;48.388;16.210;2023-05-02T04:24:12;12.20;;;9.07;;
45684;SDS011;46836;48.388;16.210;2023-05-02T04:26:40;11.02;;;9.32;;
45684;SDS011;46836;48.388;16.210;2023-05-02T04:29:07;12.48;;;10.25;;
45684;SDS011;46836;48.388;16.210;2023-05-02T04:31:34;11.20;;;9.20;;
45684;SDS011;46836;48.388;16.210;2023-05-02T04:34:02;13.65;;;9.30;;
45684;SDS011;46836;48.388;16.210;2023-05-02T04:36:29;11.45;;;9.48;;
45684;SDS011;46836;48.388;16.210;2023-05-02T04:38:56;13.57;;;10.45;;
45684;SDS011;46836;48.388;16.210;2023-05-02T04:41:24;11.75;;;9.18;;
45684;SDS011;46836;48.388;16.210;2023-05-02T04:43:51;21.98;;;9.80;;
45684;SDS011;46836;48.388;16.210;2023-05-02T04:46:18;10.32;;;9.07;;
45684;SDS011;46836;48.388;16.210;2023-05-02T04:48:45;11.48;;;9.43;;
45684;SDS011;46836;48.388;16.210;2023-05-02T04:51:12;15.27;;;10.10;;
45684;SDS011;46836;48.388;16.210;2023-05-02T04:53:42;14.40;;;10.45;;
45684;SDS011;46836;48.388;16.210;2023-05-02T04:56:09;11.73;;;9.52;;
45684;SDS011;46836;48.388;16.210;2023-05-02T04:58:36;14.10;;;9.45;;
45684;SDS011;46836;48.388;16.210;2023-05-02T05:01:03;11.73;;;9.68;;
45684;SDS011;46836;48.388;16.210;2023-05-02T05:03:31;10.73;;;8.63;;
45684;SDS011;46836;48.388;16.210;2023-05-02T05:05:59;14.02;;;10.50;;
45684;SDS011;46836;48.388;16.210;2023-05-02T05:08:26;13.00;;;9.07;;
45684;SDS011;46836;48.388;16.210;2023-05-02T05:10:53;16.20;;;9.77;;
45684;SDS011;46836;48.388;16.210;2023-05-02T05:13:20;12.95;;;10.13;;
45684;SDS011;46836;48.388;16.210;2023-05-02T05:15:47;12.40;;;9.57;;
45684;SDS011;46836;48.388;16.210;2023-05-02T05:18:14;15.10;;;9.45;;
45684;SDS011;46836;48.388;16.210;2023-05-02T05:20:41;13.80;;;9.65;;
45684;SDS011;46836;48.388;16.210;2023-05-02T05:23:08;12.55;;;9.73;;
45684;SDS011;46836;48.388;16.210;2023-05-02T05:25:35;15.98;;;10.82;;
45684;SDS011;46836;48.388;16.210;2023-05-02T05:28:02;14.13;;;10.45;;
45684;SDS011;46836;48.388;16.210;2023-05-02T05:30:29;15.32;;;9.80;;
45684;SDS011;46836;48.388;16.210;2023-05-02T05:32:56;11.57;;;9.80;;
45684;SDS011;46836;48.388;16.210;2023-05-02T05:35:24;13.07;;;9.80;;
45684;SDS011;46836;48.388;16.210;2023-05-02T05:37:51;13.85;;;11.30;;
45684;SDS011;46836;48.388;16.210;2023-05-02T05:40:19;12.73;;;10.25;;
45684;SDS011;46836;48.388;16.210;2023-05-02T05:42:47;11.90;;;10.07;;
45684;SDS011;46836;48.388;16.210;2023-05-02T05:45:13;11.75;;;10.23;;
45684;SDS011;46836;48.388;16.210;2023-05-02T05:47:42;18.42;;;10.07;;
45684;SDS011;46836;48.388;16.210;2023-05-02T05:50:09;13.57;;;10.65;;
45684;SDS011;46836;48.388;16.210;2023-05-02T05:52:36;14.65;;;11.25;;
45684;SDS011;46836;48.388;16.210;2023-05-02T05:55:04;15.70;;;11.23;;
45684;SDS011;46836;48.388;16.210;2023-05-02T05:57:32;11.65;;;9.88;;
45684;SDS011;46836;48.388;16.210;2023-05-02T05:59:59;12.57;;;11.13;;
45684;SDS011;46836;48.388;16.210;2023-05-02T06:02:26;14.18;;;11.63;;
45684;SDS011;46836;48.388;16.210;2023-05-02T06:04:53;13.93;;;11.88;;
45684;SDS011;46836;48.388;16.210;2023-05-02T06:07:21;14.27;;;11.10;;
45684;SDS011;46836;48.388;16.210;2023-05-02T06:09:48;15.65;;;11.10;;
45684;SDS011;46836;48.388;16.210;2023-05-02T06:12:15;14.85;;;10.50;;
45684;SDS011;46836;48.388;16.210;2023-05-02T06:14:42;13.73;;;11.18;;
45684;SDS011;46836;48.388;16.210;2023-05-02T06:17:09;13.85;;;10.00;;
45684;SDS011;46836;48.388;16.210;2023-05-02T06:19:36;15.23;;;12.70;;
45684;SDS011;46836;48.388;16.210;2023-05-02T06:22:03;14.15;;;11.00;;
45684;SDS011;46836;48.388;16.210;2023-05-02T06:24:31;11.68;;;9.70;;
45684;SDS011;46836;48.388;16.210;2023-05-02T06:26:58;14.13;;;11.13;;
45684;SDS011;46836;48.388;16.210;2023-05-02T06:29:25;15.93;;;12.02;;
45684;SDS011;46836;48.388;16.210;2023-05-02T06:31:55;15.90;;;12.25;;
45684;SDS011;46836;48.388;16.210;2023-05-02T06:34:22;16.58;;;11.82;;
45684;SDS011;46836;48.388;16.210;2023-05-02T06:36:53;15.10;;;11.43;;
45684;SDS011;46836;48.388;16.210;2023-05-02T06:39:21;12.50;;;11.18;;
45684;SDS011;46836;48.388;16.210;2023-05-02T06:41:49;15.18;;;10.73;;
45684;SDS011;46836;48.388;16.210;2023-05-02T06:44:16;12.88;;;11.32;;
45684;SDS011;46836;48.388;16.210;2023-05-02T06:46:43;13.45;;;10.70;;
45684;SDS011;46836;48.388;16.210;2023-05-02T06:49:10;15.13;;;11.43;;
45684;SDS011;46836;48.388;16.210;2023-05-02T06:51:37;16.60;;;11.77;;
45684;SDS011;46836;48.388;16.210;2023-05-02T06:54:04;14.38;;;11.50;;
45684;SDS011;46836;48.388;16.210;2023-05-02T06:56:31;15.45;;;11.13;;
45684;SDS011;46836;48.388;16.210;2023-05-02T06:58:59;17.05;;;11.98;;
45684;SDS011;46836;48.388;16.210;2023-05-02T07:01:26;16.73;;;11.75;;
45684;SDS011;46836;48.388;16.210;2023-05-02T07:03:53;16.05;;;11.50;;
45684;SDS011;46836;48.388;16.210;2023-05-02T07:06:20;14.13;;;12.05;;
45684;SDS011;46836;48.388;16.210;2023-05-02T07:08:47;18.48;;;12.95;;
45684;SDS011;46836;48.388;16.210;2023-05-02T07:11:14;15.10;;;11.50;;
45684;SDS011;46836;48.388;16.210;2023-05-02T07:13:41;15.27;;;11.93;;
45684;SDS011;46836;48.388;16.210;2023-05-02T07:16:08;15.88;;;13.13;;
45684;SDS011;46836;48.388;16.210;2023-05-02T07:18:35;18.80;;;13.90;;
45684;SDS011;46836;48.388;16.210;2023-05-02T07:21:03;16.63;;;11.88;;
45684;SDS011;46836;48.388;16.210;2023-05-02T07:23:30;21.50;;;14.35;;
45684;SDS011;46836;48.388;16.210;2023-05-02T07:25:57;15.57;;;12.07;;
45684;SDS011;46836;48.388;16.210;2023-05-02T07:28:24;15.20;;;13.27;;
45684;SDS011;46836;48.388;16.210;2023-05-02T07:30:51;19.88;;;14.50;;
45684;SDS011;46836;48.388;16.210;2023-05-02T07:33:18;17.42;;;13.65;;
45684;SDS011;46836;48.388;16.210;2023-05-02T07:35:46;18.83;;;13.77;;
45684;SDS011;46836;48.388;16.210;2023-05-02T07:38:13;17.38;;;13.40;;
45684;SDS011;46836;48.388;16.210;2023-05-02T07:40:40;17.95;;;14.60;;
45684;SDS011;46836;48.388;16.210;2023-05-02T07:43:08;16.05;;;13.10;;
45684;SDS011;46836;48.388;16.210;2023-05-02T07:45:36;20.73;;;16.08;;
45684;SDS011;46836;48.388;16.210;2023-05-02T07:48:03;17.70;;;13.80;;
45684;SDS011;46836;48.388;16.210;2023-05-02T07:50:31;22.20;;;14.37;;
45684;SDS011;46836;48.388;16.210;2023-05-02T07:52:58;17.60;;;14.73;;
45684;SDS011;46836;48.388;16.210;2023-05-02T07:55:25;16.77;;;14.17;;
45684;SDS011;46836;48.388;16.210;2023-05-02T07:57:53;18.90;;;12.37;;
45684;SDS011;46836;48.388;16.210;2023-05-02T08:00:20;18.60;;;14.60;;
45684;SDS011;46836;48.388;16.210;2023-05-02T08:02:47;16.83;;;13.90;;
45684;SDS011;46836;48.388;16.210;2023-05-02T08:05:14;18.10;;;14.20;;
45684;SDS011;46836;48.388;16.210;2023-05-02T08:07:41;20.93;;;15.53;;
45684;SDS011;46836;48.388;16.210;2023-05-02T08:10:08;16.80;;;14.10;;
45684;SDS011;46836;48.388;16.210;2023-05-02T08:12:39;17.80;;;14.00;;
45684;SDS011;46836;48.388;16.210;2023-05-02T08:15:08;17.50;;;14.10;;
45684;SDS011;46836;48.388;16.210;2023-05-02T08:17:37;18.67;;;15.13;;
45684;SDS011;46836;48.388;16.210;2023-05-02T08:20:05;15.50;;;13.00;;
45684;SDS011;46836;48.388;16.210;2023-05-02T08:22:32;16.13;;;12.93;;
45684;SDS011;46836;48.388;16.210;2023-05-02T08:24:59;21.23;;;12.50;;
45684;SDS011;46836;48.388;16.210;2023-05-02T08:27:26;14.90;;;11.47;;
45684;SDS011;46836;48.388;16.210;2023-05-02T08:29:53;15.20;;;11.87;;
45684;SDS011;46836;48.388;16.210;2023-05-02T08:32:23;13.77;;;11.37;;
45684;SDS011;46836;48.388;16.210;2023-05-02T08:34:53;14.30;;;12.10;;
45684;SDS011;46836;48.388;16.210;2023-05-02T08:37:22;13.97;;;11.20;;
45684;SDS011;46836;48.388;16.210;2023-05-02T08:39:49;14.47;;;10.17;;
45684;SDS011;46836;48.388;16.210;2023-05-02T08:42:16;13.10;;;11.50;;
45684;SDS011;46836;48.388;16.210;2023-05-02T08:44:43;10.93;;;9.83;;
45684;SDS011;46836;48.388;16.210;2023-05-02T08:47:10;13.17;;;11.33;;
45684;SDS011;46836;48.388;16.210;2023-05-02T08:49:40;12.93;;;10.13;;
45684;SDS011;46836;48.388;16.210;2023-05-02T08:52:08;10.13;;;9.13;;
45684;SDS011;46836;48.388;16.210;2023-05-02T08:54:38;12.57;;;9.77;;
45684;SDS011;46836;48.388;16.210;2023-05-02T08:57:05;11.13;;;9.00;;
45684;SDS011;46836;48.388;16.210;2023-05-02T08:59:33;15.83;;;10.70;;
45684;SDS011;46836;48.388;16.210;2023-05-02T09:02:04;11.20;;;10.00;;
45684;SDS011;46836;48.388;16.210;2023-05-02T09:04:44;11.60;;;9.27;;
45684;SDS011;46836;48.388;16.210;2023-05-02T09:07:16;10.30;;;8.63;;
45684;SDS011;46836;48.388;16.210;2023-05-02T09:09:43;11.93;;;9.77;;
45684;SDS011;46836;48.388;16.210;2023-05-02T09:12:11;12.80;;;8.73;;
45684;SDS011;46836;48.388;16.210;2023-05-02T09:14:38;8.80;;;7.90;;
45684;SDS011;46836;48.388;16.210;2023-05-02T09:17:05;14.37;;;7.97;;
45684;SDS011;46836;48.388;16.210;2023-05-02T09:19:32;11.87;;;8.60;;
45684;SDS011;46836;48.388;16.210;2023-05-02T09:21:59;9.10;;;7.67;;
45684;SDS011;46836;48.388;16.210;2023-05-02T09:24:27;10.60;;;8.40;;
45684;SDS011;46836;48.388;16.210;2023-05-02T09:26:56;9.77;;;8.27;;
45684;SDS011;46836;48.388;16.210;2023-05-02T09:29:29;9.73;;;8.23;;
45684;SDS011;46836;48.388;16.210;2023-05-02T09:32:02;10.07;;;8.60;;
45684;SDS011;46836;48.388;16.210;2023-05-02T09:34:33;10.00;;;8.20;;
45684;SDS011;46836;48.388;16.210;2023-05-02T09:37:03;8.90;;;7.43;;
45684;SDS011;46836;48.388;16.210;2023-05-02T09:39:31;27.10;;;7.53;;
45684;SDS011;46836;48.388;16.210;2023-05-02T09:41:58;8.33;;;7.43;;
45684;SDS011;46836;48.388;16.210;2023-05-02T09:44:26;8.93;;;7.90;;
45684;SDS011;46836;48.388;16.210;2023-05-02T09:47:03;10.37;;;8.10;;
45684;SDS011;46836;48.388;16.210;2023-05-02T09:49:37;11.27;;;9.03;;
45684;SDS011;46836;48.388;16.210;2023-05-02T09:52:10;9.13;;;8.20;;
45684;SDS011;46836;48.388;16.210;2023-05-02T09:54:43;8.80;;;7.90;;
45684;SDS011;46836;48.388;16.210;2023-05-02T09:57:12;9.77;;;8.00;;
45684;SDS011;46836;48.388;16.210;2023-05-02T09:59:39;9.43;;;8.13;;
45684;SDS011;46836;48.388;16.210;2023-05-02T10:02:08;9.50;;;8.20;;
45684;SDS011;46836;48.388;16.210;2023-05-02T10:04:37;11.60;;;9.27;;
45684;SDS011;46836;48.388;16.210;2023-05-02T10:07:06;10.37;;;8.93;;
45684;SDS011;46836;48.388;16.210;2023-05-02T10:09:36;13.00;;;8.57;;
45684;SDS011;46836;48.388;16.210;2023-05-02T10:12:08;11.83;;;9.87;;
45684;SDS011;46836;48.388;16.210;2023-05-02T10:14:39;11.90;;;9.13;;
45684;SDS011;46836;48.388;16.210;2023-05-02T10:22:32;12.07;;;9.23;;
45684;SDS011;46836;48.388;16.210;2023-05-02T10:25:01;11.13;;;9.37;;
45684;SDS011;46836;48.388;16.210;2023-05-02T10:27:29;11.47;;;9.43;;
45684;SDS011;46836;48.388;16.210;2023-05-02T10:29:58;10.57;;;9.10;;
45684;SDS011;46836;48.388;16.210;2023-05-02T10:32:27;11.97;;;8.63;;
45684;SDS011;46836;48.388;16.210;2023-05-02T10:34:57;9.83;;;8.70;;
45684;SDS011;46836;48.388;16.210;2023-05-02T10:37:32;12.13;;;7.87;;
45684;SDS011;46836;48.388;16.210;2023-05-02T10:40:02;11.40;;;9.07;;
45684;SDS011;46836;48.388;16.210;2023-05-02T10:42:33;9.13;;;7.77;;
45684;SDS011;46836;48.388;16.210;2023-05-02T10:45:09;11.57;;;9.87;;
45684;SDS011;46836;48.388;16.210;2023-05-02T10:48:15;10.13;;;8.70;;
45684;SDS011;46836;48.388;16.210;2023-05-02T10:50:56;10.90;;;8.87;;
45684;SDS011;46836;48.388;16.210;2023-05-02T10:53:28;11.23;;;9.63;;
45684;SDS011;46836;48.388;16.210;2023-05-02T10:56:13;10.33;;;9.00;;
45684;SDS011;46836;48.388;16.210;2023-05-02T10:58:44;10.83;;;9.73;;
45684;SDS011;46836;48.388;16.210;2023-05-02T11:03:52;11.97;;;9.43;;
45684;SDS011;46836;48.388;16.210;2023-05-02T11:06:20;13.33;;;9.17;;
45684;SDS011;46836;48.388;16.210;2023-05-02T11:08:47;14.93;;;9.00;;
45684;SDS011;46836;48.388;16.210;2023-05-02T11:24:53;12.03;;;9.33;;
45684;SDS011;46836;48.388;16.210;2023-05-02T11:29:59;13.57;;;10.70;;
45684;SDS011;46836;48.388;16.210;2023-05-02T11:40:19;13.60;;;10.03;;
45684;SDS011;46836;48.388;16.210;2023-05-02T11:42:47;10.63;;;9.07;;
45684;SDS011;46836;48.388;16.210;2023-05-02T11:45:14;12.87;;;10.07;;
45684;SDS011;46836;48.388;16.210;2023-05-02T11:47:42;11.93;;;9.90;;
45684;SDS011;46836;48.388;16.210;2023-05-02T11:50:11;11.83;;;10.13;;
45684;SDS011;46836;48.388;16.210;2023-05-02T11:52:39;13.90;;;10.63;;
45684;SDS011;46836;48.388;16.210;2023-05-02T11:55:11;12.80;;;10.63;;
45684;SDS011;46836;48.388;16.210;2023-05-02T11:57:40;12.27;;;10.17;;
45684;SDS011;46836;48.388;16.210;2023-05-02T12:00:08;13.80;;;11.23;;
45684;SDS011;46836;48.388;16.210;2023-05-02T12:02:39;14.50;;;12.10;;
45684;SDS011;46836;48.388;16.210;2023-05-02T12:05:11;13.27;;;10.60;;
45684;SDS011;46836;48.388;16.210;2023-05-02T12:07:43;12.10;;;10.70;;
45684;SDS011;46836;48.388;16.210;2023-05-02T12:10:11;12.20;;;10.90;;
45684;SDS011;46836;48.388;16.210;2023-05-02T12:12:42;12.20;;;10.60;;
45684;SDS011;46836;48.388;16.210;2023-05-02T12:15:11;12.80;;;11.10;;
45684;SDS011;46836;48.388;16.210;2023-05-02T12:17:39;11.13;;;10.03;;
45684;SDS011;46836;48.388;16.210;2023-05-02T12:20:09;12.33;;;11.03;;
45684;SDS011;46836;48.388;16.210;2023-05-02T12:22:37;12.63;;;10.80;;
45684;SDS011;46836;48.388;16.210;2023-05-02T12:25:04;13.07;;;11.27;;
45684;SDS011;46836;48.388;16.210;2023-05-02T12:27:32;13.80;;;10.47;;
45684;SDS011;46836;48.388;16.210;2023-05-02T12:30:00;10.73;;;9.63;;
45684;SDS011;46836;48.388;16.210;2023-05-02T12:32:29;11.47;;;10.27;;
45684;SDS011;46836;48.388;16.210;2023-05-02T12:35:01;11.90;;;10.60;;
45684;SDS011;46836;48.388;16.210;2023-05-02T12:37:29;11.10;;;10.00;;
45684;SDS011;46836;48.388;16.210;2023-05-02T12:39:56;11.30;;;10.00;;
45684;SDS011;46836;48.388;16.210;2023-05-02T12:42:24;13.63;;;11.00;;
45684;SDS011;46836;48.388;16.210;2023-05-02T12:44:52;11.20;;;9.73;;
45684;SDS011;46836;48.388;16.210;2023-05-02T12:47:19;12.63;;;10.87;;
45684;SDS011;46836;48.388;16.210;2023-05-02T12:52:18;11.60;;;10.40;;
45684;SDS011;46836;48.388;16.210;2023-05-02T12:54:48;14.60;;;10.70;;
45684;SDS011;46836;48.388;16.210;2023-05-02T12:57:24;11.03;;;9.93;;
45684;SDS011;46836;48.388;16.210;2023-05-02T12:59:52;14.10;;;11.30;;
45684;SDS011;46836;48.388;16.210;2023-05-02T13:02:21;12.90;;;10.90;;
45684;SDS011;46836;48.388;16.210;2023-05-02T13:04:52;15.43;;;12.10;;
45684;SDS011;46836;48.388;16.210;2023-05-02T13:07:27;12.43;;;11.13;;
45684;SDS011;46836;48.388;16.210;2023-05-02T13:09:55;12.90;;;10.63;;
45684;SDS011;46836;48.388;16.210;2023-05-02T13:12:22;12.67;;;10.50;;
45684;SDS011;46836;48.388;16.210;2023-05-02T13:14:53;16.07;;;11.20;;
45684;SDS011;46836;48.388;16.210;2023-05-02T13:17:22;14.37;;;10.23;;
45684;SDS011;46836;48.388;16.210;2023-05-02T13:19:52;14.43;;;11.30;;
45684;SDS011;46836;48.388;16.210;2023-05-02T13:22:27;13.00;;;11.30;;
45684;SDS011;46836;48.388;16.210;2023-05-02T13:24:55;12.83;;;10.90;;
45684;SDS011;46836;48.388;16.210;2023-05-02T13:27:22;14.40;;;10.23;;
45684;SDS011;46836;48.388;16.210;2023-05-02T13:29:49;13.43;;;10.83;;
45684;SDS011;46836;48.388;16.210;2023-05-02T13:32:17;12.30;;;11.00;;
45684;SDS011;46836;48.388;16.210;2023-05-02T13:34:44;13.13;;;11.27;;
45684;SDS011;46836;48.388;16.210;2023-05-02T13:37:11;12.73;;;11.43;;
45684;SDS011;46836;48.388;16.210;2023-05-02T13:39:38;12.37;;;11.07;;
45684;SDS011;46836;48.388;16.210;2023-05-02T13:42:05;15.63;;;12.43;;
45684;SDS011;46836;48.388;16.210;2023-05-02T13:44:33;12.10;;;10.53;;
45684;SDS011;46836;48.388;16.210;2023-05-02T13:47:01;16.70;;;11.33;;
45684;SDS011;46836;48.388;16.210;2023-05-02T13:49:29;12.63;;;11.37;;
45684;SDS011;46836;48.388;16.210;2023-05-02T13:51:56;14.43;;;11.70;;
45684;SDS011;46836;48.388;16.210;2023-05-02T13:54:23;15.30;;;11.90;;
45684;SDS011;46836;48.388;16.210;2023-05-02T13:56:50;14.13;;;11.17;;
45684;SDS011;46836;48.388;16.210;2023-05-02T13:59:17;22.20;;;12.30;;
45684;SDS011;46836;48.388;16.210;2023-05-02T14:01:44;13.23;;;11.50;;
45684;SDS011;46836;48.388;16.210;2023-05-02T14:04:11;13.73;;;11.80;;
45684;SDS011;46836;48.388;16.210;2023-05-02T14:06:39;14.13;;;10.73;;
45684;SDS011;46836;48.388;16.210;2023-05-02T14:09:06;17.87;;;12.23;;
45684;SDS011;46836;48.388;16.210;2023-05-02T14:11:34;11.83;;;10.60;;
45684;SDS011;46836;48.388;16.210;2023-05-02T14:14:01;13.83;;;11.33;;
45684;SDS011;46836;48.388;16.210;2023-05-02T14:16:28;13.27;;;10.90;;
45684;SDS011;46836;48.388;16.210;2023-05-02T14:18:55;15.70;;;12.90;;
45684;SDS011;46836;48.388;16.210;2023-05-02T14:21:23;14.80;;;12.20;;
45684;SDS011;46836;48.388;16.210;2023-05-02T14:23:50;13.50;;;10.70;;
45684;SDS011;46836;48.388;16.210;2023-05-02T14:26:17;12.93;;;10.77;;
45684;SDS011;46836;48.388;16.210;2023-05-02T14:28:45;12.00;;;10.80;;
45684;SDS011;46836;48.388;16.210;2023-05-02T14:31:12;14.70;;;12.23;;
45684;SDS011;46836;48.388;16.210;2023-05-02T14:33:39;14.00;;;11.03;;
45684;SDS011;46836;48.388;16.210;2023-05-02T14:36:07;23.30;;;14.73;;
45684;SDS011;46836;48.388;16.210;2023-05-02T14:38:34;14.47;;;12.33;;
45684;SDS011;46836;48.388;16.210;2023-05-02T14:41:01;14.83;;;11.87;;
45684;SDS011;46836;48.388;16.210;2023-05-02T14:43:28;16.37;;;12.60;;
45684;SDS011;46836;48.388;16.210;2023-05-02T14:45:56;13.37;;;11.27;;
45684;SDS011;46836;48.388;16.210;2023-05-02T14:48:24;14.30;;;12.47;;
45684;SDS011;46836;48.388;16.210;2023-05-02T14:50:51;12.93;;;11.07;;
45684;SDS011;46836;48.388;16.210;2023-05-02T14:53:19;13.70;;;11.60;;
45684;SDS011;46836;48.388;16.210;2023-05-02T14:55:46;14.33;;;12.70;;
45684;SDS011;46836;48.388;16.210;2023-05-02T14:58:14;13.27;;;11.87;;
45684;SDS011;46836;48.388;16.210;2023-05-02T15:00:46;15.43;;;12.83;;
45684;SDS011;46836;48.388;16.210;2023-05-02T15:03:13;13.27;;;10.80;;
45684;SDS011;46836;48.388;16.210;2023-05-02T15:05:40;15.23;;;12.00;;
45684;SDS011;46836;48.388;16.210;2023-05-02T15:08:07;14.67;;;11.80;;
45684;SDS011;46836;48.388;16.210;2023-05-02T15:10:35;17.13;;;12.43;;
45684;SDS011;46836;48.388;16.210;2023-05-02T15:13:05;12.83;;;11.33;;
45684;SDS011;46836;48.388;16.210;2023-05-02T15:15:34;17.03;;;11.57;;
45684;SDS011;46836;48.388;16.210;2023-05-02T15:18:01;16.27;;;13.13;;
45684;SDS011;46836;48.388;16.210;2023-05-02T15:20:28;13.73;;;12.20;;
45684;SDS011;46836;48.388;16.210;2023-05-02T15:22:55;15.20;;;11.43;;
45684;SDS011;46836;48.388;16.210;2023-05-02T15:25:24;15.00;;;12.20;;
45684;SDS011;46836;48.388;16.210;2023-05-02T15:27:51;15.40;;;11.37;;
45684;SDS011;46836;48.388;16.210;2023-05-02T15:30:18;11.47;;;10.27;;
45684;SDS011;46836;48.388;16.210;2023-05-02T15:32:48;16.10;;;11.43;;
45684;SDS011;46836;48.388;16.210;2023-05-02T15:35:16;13.73;;;11.80;;
45684;SDS011;46836;48.388;16.210;2023-05-02T15:37:43;13.73;;;11.00;;